Free Soil, MI (49411)

9:38 PM EDT on July 30, 2016 (GMT -0400)
MesoWest | | Change Station

Elev 659 ft 44.22 °N, 86.31 °W | Updated 53 minutes ago

Overcast
Overcast
74 °F
Feels Like 76 °F
N
5
Wind Variable Wind from SSW
Gusts 8.0 mph

Today
High -- | Low -- °F
--% Chance of Precip.
Yesterday
High -- | Low -- °F
Precip. -- in
Pressure 30.05 in
Visibility 10.0 miles
Clouds Scattered Clouds 7000 ft
Overcast 8500 ft
Heat Index 76 °F
Dew Point 63 °F
Humidity 68%
Rainfall in
Snow Depth Not available.
6:31 AM 9:10 PM
Waning Crescent, 9% visible
METAR KMBL 310056Z AUTO 00000KT 10SM SCT070 OVC085 22/18 A3001 RMK AO2 SLP176 T02220178
Pressure 30.05 in
Visibility 10.0 miles
Clouds Scattered Clouds 7000 ft
Overcast 8500 ft
Heat Index 76 °F
Dew Point 63 °F
Humidity 68%
Rainfall in
Snow Depth Not available.
6:31 AM 9:10 PM
Waning Crescent, 9% visible
METAR KMBL 310056Z AUTO 00000KT 10SM SCT070 OVC085 22/18 A3001 RMK AO2 SLP176 T02220178

10-Day Weather Forecast

Almanac

Astronomy

Jul. 30, 2016 Rise Set
Actual Time
Civil Twilight
Nautical Twilight
Astronomical Twilight
Moon
Length of Visible Light
Length of Day
Tomorrow will be .
, % of the Moon is Illuminated

Today's Extremes

State Highs State Lows

Community

WunderPhotos

Upload Photos

1,928,699 photos uploaded!

WunderBlog® & News

Nearby

Air Quality

  Air Quality AQ Index Pollutant
Not available.

Snow Depth

Station Depth Elevation

Earthquake Activity

City Distance Mag. Time & Date
Minimum magnitude displayed is 2.5.

Coastal Water Temperatures

Place Temperature

Stations

Nearby Weather Stations

Station Location Temp. Windchill Dew Point Humidity Wind Precip. Elev Updated Type
                   

Watches & Warnings

There are currently no watches in effect.